sensor_id;sensor_type;location;lat;lon;timestamp;temperature;humidity
80254;DHT22;69563;37.974;23.708;2023-06-01T00:00:01;25.70;51.50
80254;DHT22;69563;37.974;23.708;2023-06-01T00:02:27;25.70;51.60
80254;DHT22;69563;37.974;23.708;2023-06-01T00:04:53;25.70;51.50
80254;DHT22;69563;37.974;23.708;2023-06-01T00:07:19;25.70;51.60
80254;DHT22;69563;37.974;23.708;2023-06-01T00:09:47;25.70;51.60
80254;DHT22;69563;37.974;23.708;2023-06-01T00:12:13;25.70;51.60
80254;DHT22;69563;37.974;23.708;2023-06-01T00:14:39;25.70;51.60
80254;DHT22;69563;37.974;23.708;2023-06-01T00:17:05;25.70;51.60
80254;DHT22;69563;37.974;23.708;2023-06-01T00:19:33;25.60;51.70
80254;DHT22;69563;37.974;23.708;2023-06-01T00:22:00;25.60;51.80
80254;DHT22;69563;37.974;23.708;2023-06-01T00:24:26;25.60;51.90
80254;DHT22;69563;37.974;23.708;2023-06-01T00:26:51;25.60;52.00
80254;DHT22;69563;37.974;23.708;2023-06-01T00:29:17;25.50;52.00
80254;DHT22;69563;37.974;23.708;2023-06-01T00:31:43;25.50;52.10
80254;DHT22;69563;37.974;23.708;2023-06-01T00:34:10;25.50;52.20
80254;DHT22;69563;37.974;23.708;2023-06-01T00:36:35;25.50;52.30
80254;DHT22;69563;37.974;23.708;2023-06-01T00:39:01;25.50;52.20
80254;DHT22;69563;37.974;23.708;2023-06-01T00:41:28;25.50;52.30
80254;DHT22;69563;37.974;23.708;2023-06-01T00:43:54;25.50;52.30
80254;DHT22;69563;37.974;23.708;2023-06-01T00:46:20;25.50;52.30
80254;DHT22;69563;37.974;23.708;2023-06-01T00:48:46;25.50;52.30
80254;DHT22;69563;37.974;23.708;2023-06-01T00:51:12;25.50;52.30
80254;DHT22;69563;37.974;23.708;2023-06-01T00:53:41;25.50;52.30
80254;DHT22;69563;37.974;23.708;2023-06-01T00:56:08;25.50;52.40
80254;DHT22;69563;37.974;23.708;2023-06-01T00:58:34;25.50;52.40
80254;DHT22;69563;37.974;23.708;2023-06-01T01:01:00;25.50;52.50
80254;DHT22;69563;37.974;23.708;2023-06-01T01:03:27;25.50;52.60
80254;DHT22;69563;37.974;23.708;2023-06-01T01:06:12;25.40;52.60
80254;DHT22;69563;37.974;23.708;2023-06-01T01:11:35;25.40;52.60
80254;DHT22;69563;37.974;23.708;2023-06-01T01:14:13;25.40;52.70
80254;DHT22;69563;37.974;23.708;2023-06-01T01:16:49;25.40;52.70
80254;DHT22;69563;37.974;23.708;2023-06-01T01:30:22;25.40;52.90
80254;DHT22;69563;37.974;23.708;2023-06-01T01:32:50;25.30;52.90
80254;DHT22;69563;37.974;23.708;2023-06-01T01:35:17;25.30;52.90
80254;DHT22;69563;37.974;23.708;2023-06-01T01:37:50;25.30;52.90
80254;DHT22;69563;37.974;23.708;2023-06-01T01:40:17;25.30;52.90
80254;DHT22;69563;37.974;23.708;2023-06-01T01:42:42;25.30;53.00
80254;DHT22;69563;37.974;23.708;2023-06-01T01:45:09;25.30;53.00
80254;DHT22;69563;37.974;23.708;2023-06-01T01:47:40;25.30;53.10
80254;DHT22;69563;37.974;23.708;2023-06-01T01:50:10;25.30;53.10
80254;DHT22;69563;37.974;23.708;2023-06-01T01:52:39;25.30;53.10
80254;DHT22;69563;37.974;23.708;2023-06-01T01:55:07;25.30;53.10
80254;DHT22;69563;37.974;23.708;2023-06-01T01:57:34;25.30;53.10
80254;DHT22;69563;37.974;23.708;2023-06-01T02:00:01;25.30;53.00
80254;DHT22;69563;37.974;23.708;2023-06-01T02:02:28;25.30;53.00
80254;DHT22;69563;37.974;23.708;2023-06-01T02:04:54;25.30;53.00
80254;DHT22;69563;37.974;23.708;2023-06-01T02:07:19;25.30;52.90
80254;DHT22;69563;37.974;23.708;2023-06-01T02:09:46;25.30;52.90
80254;DHT22;69563;37.974;23.708;2023-06-01T02:12:11;25.30;53.00
80254;DHT22;69563;37.974;23.708;2023-06-01T02:14:37;25.30;53.00
80254;DHT22;69563;37.974;23.708;2023-06-01T02:17:03;25.30;53.00
80254;DHT22;69563;37.974;23.708;2023-06-01T02:19:29;25.30;53.00
80254;DHT22;69563;37.974;23.708;2023-06-01T02:21:55;25.30;52.90
80254;DHT22;69563;37.974;23.708;2023-06-01T02:24:21;25.30;52.90
80254;DHT22;69563;37.974;23.708;2023-06-01T02:26:47;25.30;52.90
80254;DHT22;69563;37.974;23.708;2023-06-01T02:29:20;25.30;52.90
80254;DHT22;69563;37.974;23.708;2023-06-01T02:31:48;25.30;52.90
80254;DHT22;69563;37.974;23.708;2023-06-01T02:34:16;25.30;52.90
80254;DHT22;69563;37.974;23.708;2023-06-01T02:36:42;25.30;52.90
80254;DHT22;69563;37.974;23.708;2023-06-01T02:39:08;25.30;52.90
80254;DHT22;69563;37.974;23.708;2023-06-01T02:41:34;25.30;52.80
80254;DHT22;69563;37.974;23.708;2023-06-01T02:44:00;25.30;52.70
80254;DHT22;69563;37.974;23.708;2023-06-01T02:46:26;25.30;52.70
80254;DHT22;69563;37.974;23.708;2023-06-01T02:48:52;25.30;52.70
80254;DHT22;69563;37.974;23.708;2023-06-01T02:51:18;25.30;52.60
80254;DHT22;69563;37.974;23.708;2023-06-01T02:53:44;25.30;52.60
80254;DHT22;69563;37.974;23.708;2023-06-01T02:56:12;25.20;52.60
80254;DHT22;69563;37.974;23.708;2023-06-01T02:58:38;25.20;52.50
80254;DHT22;69563;37.974;23.708;2023-06-01T03:01:04;25.30;52.60
80254;DHT22;69563;37.974;23.708;2023-06-01T03:03:30;25.20;52.40
80254;DHT22;69563;37.974;23.708;2023-06-01T03:05:56;25.20;52.30
80254;DHT22;69563;37.974;23.708;2023-06-01T03:08:23;25.20;52.40
80254;DHT22;69563;37.974;23.708;2023-06-01T03:10:52;25.30;53.00
80254;DHT22;69563;37.974;23.708;2023-06-01T03:13:18;25.20;52.30
80254;DHT22;69563;37.974;23.708;2023-06-01T03:15:44;25.20;52.40
80254;DHT22;69563;37.974;23.708;2023-06-01T03:18:10;25.20;52.40
80254;DHT22;69563;37.974;23.708;2023-06-01T03:20:35;25.20;52.40
80254;DHT22;69563;37.974;23.708;2023-06-01T03:23:01;25.20;52.30
80254;DHT22;69563;37.974;23.708;2023-06-01T03:25:27;25.20;52.50
80254;DHT22;69563;37.974;23.708;2023-06-01T03:27:53;25.20;52.50
80254;DHT22;69563;37.974;23.708;2023-06-01T03:30:19;25.20;52.40
80254;DHT22;69563;37.974;23.708;2023-06-01T03:32:45;25.20;52.40
80254;DHT22;69563;37.974;23.708;2023-06-01T03:35:12;25.20;52.50
80254;DHT22;69563;37.974;23.708;2023-06-01T03:37:39;25.30;52.50
80254;DHT22;69563;37.974;23.708;2023-06-01T03:40:06;25.20;52.40
80254;DHT22;69563;37.974;23.708;2023-06-01T03:42:42;25.30;52.40
80254;DHT22;69563;37.974;23.708;2023-06-01T03:45:09;25.30;52.30
80254;DHT22;69563;37.974;23.708;2023-06-01T03:47:36;25.30;52.20
80254;DHT22;69563;37.974;23.708;2023-06-01T03:50:04;25.40;52.00
80254;DHT22;69563;37.974;23.708;2023-06-01T03:52:31;25.50;51.90
80254;DHT22;69563;37.974;23.708;2023-06-01T03:54:59;25.50;51.90
80254;DHT22;69563;37.974;23.708;2023-06-01T03:57:26;25.50;51.90
80254;DHT22;69563;37.974;23.708;2023-06-01T03:59:52;25.50;51.80
80254;DHT22;69563;37.974;23.708;2023-06-01T04:02:18;25.50;51.70
80254;DHT22;69563;37.974;23.708;2023-06-01T04:04:45;25.50;51.60
80254;DHT22;69563;37.974;23.708;2023-06-01T04:07:12;25.60;51.60
80254;DHT22;69563;37.974;23.708;2023-06-01T04:09:43;25.60;51.70
80254;DHT22;69563;37.974;23.708;2023-06-01T04:12:09;25.60;51.70
80254;DHT22;69563;37.974;23.708;2023-06-01T04:14:38;25.60;51.80
80254;DHT22;69563;37.974;23.708;2023-06-01T04:17:05;25.60;51.80
80254;DHT22;69563;37.974;23.708;2023-06-01T04:19:38;25.70;51.90
80254;DHT22;69563;37.974;23.708;2023-06-01T04:22:05;25.70;51.90
80254;DHT22;69563;37.974;23.708;2023-06-01T04:24:31;25.80;51.80
80254;DHT22;69563;37.974;23.708;2023-06-01T04:26:56;25.80;51.60
80254;DHT22;69563;37.974;23.708;2023-06-01T04:29:24;25.90;51.40
80254;DHT22;69563;37.974;23.708;2023-06-01T04:31:50;26.00;51.30
80254;DHT22;69563;37.974;23.708;2023-06-01T04:34:16;26.10;51.10
80254;DHT22;69563;37.974;23.708;2023-06-01T04:36:43;26.10;50.90
80254;DHT22;69563;37.974;23.708;2023-06-01T04:39:09;26.20;50.70
80254;DHT22;69563;37.974;23.708;2023-06-01T04:41:35;26.30;50.50
80254;DHT22;69563;37.974;23.708;2023-06-01T04:44:02;26.40;50.30
80254;DHT22;69563;37.974;23.708;2023-06-01T04:46:31;26.50;50.10
80254;DHT22;69563;37.974;23.708;2023-06-01T04:48:58;26.50;49.90
80254;DHT22;69563;37.974;23.708;2023-06-01T04:51:25;26.60;49.70
80254;DHT22;69563;37.974;23.708;2023-06-01T04:53:53;26.70;49.60
80254;DHT22;69563;37.974;23.708;2023-06-01T04:56:23;26.70;49.40
80254;DHT22;69563;37.974;23.708;2023-06-01T04:58:56;26.80;49.20
80254;DHT22;69563;37.974;23.708;2023-06-01T05:01:26;26.90;49.00
80254;DHT22;69563;37.974;23.708;2023-06-01T05:03:54;27.00;48.80
80254;DHT22;69563;37.974;23.708;2023-06-01T05:06:21;27.10;48.60
80254;DHT22;69563;37.974;23.708;2023-06-01T05:08:47;27.10;48.30
80254;DHT22;69563;37.974;23.708;2023-06-01T05:11:15;27.20;48.20
80254;DHT22;69563;37.974;23.708;2023-06-01T05:13:41;27.30;48.00
80254;DHT22;69563;37.974;23.708;2023-06-01T05:16:09;27.40;47.70
80254;DHT22;69563;37.974;23.708;2023-06-01T05:18:35;27.40;47.30
80254;DHT22;69563;37.974;23.708;2023-06-01T05:21:01;27.50;47.10
80254;DHT22;69563;37.974;23.708;2023-06-01T05:23:28;27.60;46.80
80254;DHT22;69563;37.974;23.708;2023-06-01T05:25:54;27.60;46.40
80254;DHT22;69563;37.974;23.708;2023-06-01T05:28:30;27.70;46.20
80254;DHT22;69563;37.974;23.708;2023-06-01T05:30:56;27.70;45.90
80254;DHT22;69563;37.974;23.708;2023-06-01T05:33:22;27.80;45.60
80254;DHT22;69563;37.974;23.708;2023-06-01T05:35:49;27.90;45.40
80254;DHT22;69563;37.974;23.708;2023-06-01T05:38:21;27.90;45.20
80254;DHT22;69563;37.974;23.708;2023-06-01T05:40:46;28.00;44.90
80254;DHT22;69563;37.974;23.708;2023-06-01T05:43:12;28.10;44.70
80254;DHT22;69563;37.974;23.708;2023-06-01T05:45:38;28.10;44.60
80254;DHT22;69563;37.974;23.708;2023-06-01T05:48:04;28.20;44.40
80254;DHT22;69563;37.974;23.708;2023-06-01T05:50:29;28.20;44.00
80254;DHT22;69563;37.974;23.708;2023-06-01T05:52:55;28.30;44.00
80254;DHT22;69563;37.974;23.708;2023-06-01T05:55:21;28.30;43.90
80254;DHT22;69563;37.974;23.708;2023-06-01T05:57:46;28.30;43.80
80254;DHT22;69563;37.974;23.708;2023-06-01T06:00:13;28.40;43.80
80254;DHT22;69563;37.974;23.708;2023-06-01T06:02:44;28.40;43.70
80254;DHT22;69563;37.974;23.708;2023-06-01T06:05:10;28.40;43.60
80254;DHT22;69563;37.974;23.708;2023-06-01T06:07:36;28.50;43.60
80254;DHT22;69563;37.974;23.708;2023-06-01T06:10:03;28.50;43.50
80254;DHT22;69563;37.974;23.708;2023-06-01T06:12:29;28.50;43.50
80254;DHT22;69563;37.974;23.708;2023-06-01T06:14:55;28.50;43.50
80254;DHT22;69563;37.974;23.708;2023-06-01T06:17:23;28.50;43.40
80254;DHT22;69563;37.974;23.708;2023-06-01T06:20:07;28.50;43.30
80254;DHT22;69563;37.974;23.708;2023-06-01T06:22:56;28.50;43.20
80254;DHT22;69563;37.974;23.708;2023-06-01T06:25:23;28.40;42.90
80254;DHT22;69563;37.974;23.708;2023-06-01T06:27:49;28.40;42.50
80254;DHT22;69563;37.974;23.708;2023-06-01T06:30:15;28.50;42.40
80254;DHT22;69563;37.974;23.708;2023-06-01T06:32:43;28.40;41.80
80254;DHT22;69563;37.974;23.708;2023-06-01T06:35:14;28.40;41.60
80254;DHT22;69563;37.974;23.708;2023-06-01T06:37:40;28.50;41.50
80254;DHT22;69563;37.974;23.708;2023-06-01T06:40:07;28.40;41.20
80254;DHT22;69563;37.974;23.708;2023-06-01T06:42:33;28.40;41.00
80254;DHT22;69563;37.974;23.708;2023-06-01T06:44:59;28.40;41.00
80254;DHT22;69563;37.974;23.708;2023-06-01T06:47:24;28.40;40.90
80254;DHT22;69563;37.974;23.708;2023-06-01T06:49:51;28.40;40.70
80254;DHT22;69563;37.974;23.708;2023-06-01T06:52:17;28.40;40.60
80254;DHT22;69563;37.974;23.708;2023-06-01T06:54:43;28.40;40.50
80254;DHT22;69563;37.974;23.708;2023-06-01T06:57:09;28.50;40.30
80254;DHT22;69563;37.974;23.708;2023-06-01T06:59:36;28.50;40.10
80254;DHT22;69563;37.974;23.708;2023-06-01T07:02:02;28.50;40.10
80254;DHT22;69563;37.974;23.708;2023-06-01T07:04:31;28.50;40.00
80254;DHT22;69563;37.974;23.708;2023-06-01T07:06:57;28.60;39.90
80254;DHT22;69563;37.974;23.708;2023-06-01T07:09:22;28.60;40.00
80254;DHT22;69563;37.974;23.708;2023-06-01T07:11:48;28.60;39.90
80254;DHT22;69563;37.974;23.708;2023-06-01T07:14:15;28.60;40.20
80254;DHT22;69563;37.974;23.708;2023-06-01T07:16:41;28.60;40.20
80254;DHT22;69563;37.974;23.708;2023-06-01T07:19:07;28.60;40.20
80254;DHT22;69563;37.974;23.708;2023-06-01T07:21:33;28.70;40.20
80254;DHT22;69563;37.974;23.708;2023-06-01T07:23:59;28.70;40.10
80254;DHT22;69563;37.974;23.708;2023-06-01T07:26:25;28.70;40.00
80254;DHT22;69563;37.974;23.708;2023-06-01T07:28:52;28.80;39.80
80254;DHT22;69563;37.974;23.708;2023-06-01T07:31:19;28.80;39.60
80254;DHT22;69563;37.974;23.708;2023-06-01T07:33:48;28.80;39.40
80254;DHT22;69563;37.974;23.708;2023-06-01T07:36:17;28.80;39.40
80254;DHT22;69563;37.974;23.708;2023-06-01T07:38:43;28.80;39.50
80254;DHT22;69563;37.974;23.708;2023-06-01T07:41:09;28.80;39.50
80254;DHT22;69563;37.974;23.708;2023-06-01T07:43:37;28.80;39.60
80254;DHT22;69563;37.974;23.708;2023-06-01T07:46:04;28.70;39.30
80254;DHT22;69563;37.974;23.708;2023-06-01T07:48:29;28.80;39.40
80254;DHT22;69563;37.974;23.708;2023-06-01T07:51:04;28.70;39.30
80254;DHT22;69563;37.974;23.708;2023-06-01T07:53:31;28.70;39.30
80254;DHT22;69563;37.974;23.708;2023-06-01T07:55:57;28.70;39.30
80254;DHT22;69563;37.974;23.708;2023-06-01T07:58:22;28.70;38.90
80254;DHT22;69563;37.974;23.708;2023-06-01T08:00:48;28.70;38.90
80254;DHT22;69563;37.974;23.708;2023-06-01T08:03:15;28.70;39.70
80254;DHT22;69563;37.974;23.708;2023-06-01T08:05:41;28.60;38.50
80254;DHT22;69563;37.974;23.708;2023-06-01T08:08:10;28.60;38.40
80254;DHT22;69563;37.974;23.708;2023-06-01T08:10:36;28.60;38.60
80254;DHT22;69563;37.974;23.708;2023-06-01T08:13:04;28.60;38.40
80254;DHT22;69563;37.974;23.708;2023-06-01T08:15:32;28.50;37.90
80254;DHT22;69563;37.974;23.708;2023-06-01T08:17:59;28.50;38.20
80254;DHT22;69563;37.974;23.708;2023-06-01T08:20:25;28.40;37.80
80254;DHT22;69563;37.974;23.708;2023-06-01T08:22:53;28.40;37.60
80254;DHT22;69563;37.974;23.708;2023-06-01T08:25:18;28.40;36.60
80254;DHT22;69563;37.974;23.708;2023-06-01T08:27:44;28.50;36.20
80254;DHT22;69563;37.974;23.708;2023-06-01T08:30:15;28.50;34.90
80254;DHT22;69563;37.974;23.708;2023-06-01T08:32:41;28.50;34.50
80254;DHT22;69563;37.974;23.708;2023-06-01T08:35:07;28.50;34.00
80254;DHT22;69563;37.974;23.708;2023-06-01T08:37:41;28.50;33.30
80254;DHT22;69563;37.974;23.708;2023-06-01T08:40:07;28.50;33.30
80254;DHT22;69563;37.974;23.708;2023-06-01T08:45:12;28.50;33.30
80254;DHT22;69563;37.974;23.708;2023-06-01T08:47:41;28.50;32.70
80254;DHT22;69563;37.974;23.708;2023-06-01T08:50:10;28.50;32.50
80254;DHT22;69563;37.974;23.708;2023-06-01T08:52:38;28.50;32.30
80254;DHT22;69563;37.974;23.708;2023-06-01T08:55:04;28.40;32.00
80254;DHT22;69563;37.974;23.708;2023-06-01T08:57:30;28.40;31.70
80254;DHT22;69563;37.974;23.708;2023-06-01T08:59:57;28.30;31.10
80254;DHT22;69563;37.974;23.708;2023-06-01T09:02:24;28.30;30.80
80254;DHT22;69563;37.974;23.708;2023-06-01T09:04:51;28.30;30.60
80254;DHT22;69563;37.974;23.708;2023-06-01T09:07:17;28.20;30.10
80254;DHT22;69563;37.974;23.708;2023-06-01T09:09:43;28.20;30.40
80254;DHT22;69563;37.974;23.708;2023-06-01T09:12:25;28.10;30.80
80254;DHT22;69563;37.974;23.708;2023-06-01T09:15:06;28.20;30.80
80254;DHT22;69563;37.974;23.708;2023-06-01T09:17:33;28.20;30.20
80254;DHT22;69563;37.974;23.708;2023-06-01T09:19:59;28.30;30.50
80254;DHT22;69563;37.974;23.708;2023-06-01T09:22:46;28.30;30.20
80254;DHT22;69563;37.974;23.708;2023-06-01T09:25:13;28.30;30.00
80254;DHT22;69563;37.974;23.708;2023-06-01T09:30:09;28.30;29.80
80254;DHT22;69563;37.974;23.708;2023-06-01T09:32:35;28.30;29.90
80254;DHT22;69563;37.974;23.708;2023-06-01T09:35:01;28.20;29.90
80254;DHT22;69563;37.974;23.708;2023-06-01T09:37:27;28.30;30.00
80254;DHT22;69563;37.974;23.708;2023-06-01T09:39:56;28.30;30.00
80254;DHT22;69563;37.974;23.708;2023-06-01T09:42:32;28.20;29.80
80254;DHT22;69563;37.974;23.708;2023-06-01T09:45:14;28.30;29.70
80254;DHT22;69563;37.974;23.708;2023-06-01T09:47:41;28.30;29.50
80254;DHT22;69563;37.974;23.708;2023-06-01T09:50:07;28.30;29.40
80254;DHT22;69563;37.974;23.708;2023-06-01T09:52:33;28.30;29.30
80254;DHT22;69563;37.974;23.708;2023-06-01T09:55:08;28.30;29.50
80254;DHT22;69563;37.974;23.708;2023-06-01T09:57:34;28.40;29.50
80254;DHT22;69563;37.974;23.708;2023-06-01T10:00:02;28.40;29.00
80254;DHT22;69563;37.974;23.708;2023-06-01T10:02:32;28.30;28.70
80254;DHT22;69563;37.974;23.708;2023-06-01T10:05:00;28.40;28.50
80254;DHT22;69563;37.974;23.708;2023-06-01T10:07:27;28.40;28.60
80254;DHT22;69563;37.974;23.708;2023-06-01T10:09:55;28.40;28.60
80254;DHT22;69563;37.974;23.708;2023-06-01T10:12:26;28.40;28.80
80254;DHT22;69563;37.974;23.708;2023-06-01T10:14:53;28.40;28.90
80254;DHT22;69563;37.974;23.708;2023-06-01T10:17:19;28.50;28.90
80254;DHT22;69563;37.974;23.708;2023-06-01T10:19:46;28.50;29.00
80254;DHT22;69563;37.974;23.708;2023-06-01T10:22:12;28.50;29.00
80254;DHT22;69563;37.974;23.708;2023-06-01T10:24:40;28.50;29.10
80254;DHT22;69563;37.974;23.708;2023-06-01T10:29:47;28.50;29.60
80254;DHT22;69563;37.974;23.708;2023-06-01T10:35:09;28.40;29.80
80254;DHT22;69563;37.974;23.708;2023-06-01T10:40:44;28.30;29.80
80254;DHT22;69563;37.974;23.708;2023-06-01T10:43:39;28.30;29.80
80254;DHT22;69563;37.974;23.708;2023-06-01T10:46:34;28.40;29.80
80254;DHT22;69563;37.974;23.708;2023-06-01T10:49:01;28.30;29.50
80254;DHT22;69563;37.974;23.708;2023-06-01T10:51:27;28.30;29.90
80254;DHT22;69563;37.974;23.708;2023-06-01T10:53:54;28.30;30.00
80254;DHT22;69563;37.974;23.708;2023-06-01T10:56:24;28.30;30.00
80254;DHT22;69563;37.974;23.708;2023-06-01T11:01:46;28.30;29.90
80254;DHT22;69563;37.974;23.708;2023-06-01T11:04:34;28.30;30.00
80254;DHT22;69563;37.974;23.708;2023-06-01T11:07:37;28.30;29.90
80254;DHT22;69563;37.974;23.708;2023-06-01T11:10:04;28.30;29.90
80254;DHT22;69563;37.974;23.708;2023-06-01T11:15:36;28.30;29.40
80254;DHT22;69563;37.974;23.708;2023-06-01T11:18:42;28.30;28.80
80254;DHT22;69563;37.974;23.708;2023-06-01T11:21:19;28.30;29.10
80254;DHT22;69563;37.974;23.708;2023-06-01T11:23:54;28.30;29.30
80254;DHT22;69563;37.974;23.708;2023-06-01T11:26:28;28.40;29.40
80254;DHT22;69563;37.974;23.708;2023-06-01T11:29:04;28.30;29.50
80254;DHT22;69563;37.974;23.708;2023-06-01T11:31:38;28.30;29.80
80254;DHT22;69563;37.974;23.708;2023-06-01T11:34:04;28.30;29.80
80254;DHT22;69563;37.974;23.708;2023-06-01T11:36:35;28.40;30.10
80254;DHT22;69563;37.974;23.708;2023-06-01T11:39:02;28.50;30.10
80254;DHT22;69563;37.974;23.708;2023-06-01T11:41:28;28.50;30.00
80254;DHT22;69563;37.974;23.708;2023-06-01T11:43:57;28.60;29.80
80254;DHT22;69563;37.974;23.708;2023-06-01T11:46:23;28.60;29.70
80254;DHT22;69563;37.974;23.708;2023-06-01T11:51:29;28.70;29.60
80254;DHT22;69563;37.974;23.708;2023-06-01T11:53:55;28.70;29.50
80254;DHT22;69563;37.974;23.708;2023-06-01T11:56:28;28.70;29.40
80254;DHT22;69563;37.974;23.708;2023-06-01T11:58:57;28.70;29.20
80254;DHT22;69563;37.974;23.708;2023-06-01T12:01:24;28.80;29.10
80254;DHT22;69563;37.974;23.708;2023-06-01T12:03:50;28.70;29.00
80254;DHT22;69563;37.974;23.708;2023-06-01T12:06:23;28.70;28.90
80254;DHT22;69563;37.974;23.708;2023-06-01T12:08:51;28.60;28.80
80254;DHT22;69563;37.974;23.708;2023-06-01T12:11:25;28.60;28.90
80254;DHT22;69563;37.974;23.708;2023-06-01T12:13:55;28.60;28.80
80254;DHT22;69563;37.974;23.708;2023-06-01T12:16:24;28.60;28.80
80254;DHT22;69563;37.974;23.708;2023-06-01T12:18:51;28.70;29.00
80254;DHT22;69563;37.974;23.708;2023-06-01T12:21:17;28.60;28.90
80254;DHT22;69563;37.974;23.708;2023-06-01T12:23:48;28.70;29.10
80254;DHT22;69563;37.974;23.708;2023-06-01T12:26:17;28.70;29.30
80254;DHT22;69563;37.974;23.708;2023-06-01T12:28:50;28.70;29.00
80254;DHT22;69563;37.974;23.708;2023-06-01T12:31:18;28.80;29.20
80254;DHT22;69563;37.974;23.708;2023-06-01T12:33:44;28.70;29.00
80254;DHT22;69563;37.974;23.708;2023-06-01T12:36:27;28.70;29.10
80254;DHT22;69563;37.974;23.708;2023-06-01T12:38:53;28.70;29.20
80254;DHT22;69563;37.974;23.708;2023-06-01T12:41:19;28.60;29.20
80254;DHT22;69563;37.974;23.708;2023-06-01T12:43:47;28.60;29.30
80254;DHT22;69563;37.974;23.708;2023-06-01T12:46:25;28.60;29.50
80254;DHT22;69563;37.974;23.708;2023-06-01T12:49:11;28.60;29.50
80254;DHT22;69563;37.974;23.708;2023-06-01T12:51:37;28.60;29.50
80254;DHT22;69563;37.974;23.708;2023-06-01T12:54:03;28.60;29.60
80254;DHT22;69563;37.974;23.708;2023-06-01T12:56:29;28.60;29.60
80254;DHT22;69563;37.974;23.708;2023-06-01T12:58:55;28.60;29.60
80254;DHT22;69563;37.974;23.708;2023-06-01T13:01:20;28.50;29.70
80254;DHT22;69563;37.974;23.708;2023-06-01T13:03:46;28.50;29.80
80254;DHT22;69563;37.974;23.708;2023-06-01T13:06:15;28.50;29.80
80254;DHT22;69563;37.974;23.708;2023-06-01T13:08:42;28.40;30.50
80254;DHT22;69563;37.974;23.708;2023-06-01T13:11:08;28.50;29.70
80254;DHT22;69563;37.974;23.708;2023-06-01T13:13:34;28.50;29.70
80254;DHT22;69563;37.974;23.708;2023-06-01T13:16:00;28.50;29.60
80254;DHT22;69563;37.974;23.708;2023-06-01T13:18:27;28.40;29.50
80254;DHT22;69563;37.974;23.708;2023-06-01T13:20:52;28.40;29.50
80254;DHT22;69563;37.974;23.708;2023-06-01T13:23:18;28.40;29.60
80254;DHT22;69563;37.974;23.708;2023-06-01T13:25:44;28.40;29.70
80254;DHT22;69563;37.974;23.708;2023-06-01T13:28:10;28.40;29.60
80254;DHT22;69563;37.974;23.708;2023-06-01T13:30:37;28.40;29.60
80254;DHT22;69563;37.974;23.708;2023-06-01T13:33:04;28.50;29.50
80254;DHT22;69563;37.974;23.708;2023-06-01T13:35:31;28.40;29.50
80254;DHT22;69563;37.974;23.708;2023-06-01T13:37:57;28.50;29.50
80254;DHT22;69563;37.974;23.708;2023-06-01T13:40:24;28.50;29.50
80254;DHT22;69563;37.974;23.708;2023-06-01T13:42:53;28.40;29.30
80254;DHT22;69563;37.974;23.708;2023-06-01T13:45:21;28.40;29.30
80254;DHT22;69563;37.974;23.708;2023-06-01T13:47:48;28.40;29.30
80254;DHT22;69563;37.974;23.708;2023-06-01T13:50:15;28.40;29.30
80254;DHT22;69563;37.974;23.708;2023-06-01T13:52:41;28.40;29.30
80254;DHT22;69563;37.974;23.708;2023-06-01T13:55:08;28.30;29.40
80254;DHT22;69563;37.974;23.708;2023-06-01T13:57:35;28.30;29.20
80254;DHT22;69563;37.974;23.708;2023-06-01T14:00:01;28.30;29.30
80254;DHT22;69563;37.974;23.708;2023-06-01T14:02:27;28.40;29.20
80254;DHT22;69563;37.974;23.708;2023-06-01T14:04:52;28.40;29.20
80254;DHT22;69563;37.974;23.708;2023-06-01T14:07:18;28.30;29.00
80254;DHT22;69563;37.974;23.708;2023-06-01T14:09:44;28.30;29.10
80254;DHT22;69563;37.974;23.708;2023-06-01T14:12:10;28.30;29.10
80254;DHT22;69563;37.974;23.708;2023-06-01T14:14:37;28.30;29.00
80254;DHT22;69563;37.974;23.708;2023-06-01T14:17:03;28.30;29.00
80254;DHT22;69563;37.974;23.708;2023-06-01T14:19:28;28.30;29.00
80254;DHT22;69563;37.974;23.708;2023-06-01T14:21:54;28.30;29.00
80254;DHT22;69563;37.974;23.708;2023-06-01T14:24:20;28.30;29.00
80254;DHT22;69563;37.974;23.708;2023-06-01T14:26:46;28.30;29.00
80254;DHT22;69563;37.974;23.708;2023-06-01T14:29:12;28.30;29.20
80254;DHT22;69563;37.974;23.708;2023-06-01T14:31:37;28.30;29.00
80254;DHT22;69563;37.974;23.708;2023-06-01T14:34:03;28.30;29.00
80254;DHT22;69563;37.974;23.708;2023-06-01T14:36:29;28.30;29.10
80254;DHT22;69563;37.974;23.708;2023-06-01T14:38:55;28.20;29.10
80254;DHT22;69563;37.974;23.708;2023-06-01T14:41:21;28.20;29.00
80254;DHT22;69563;37.974;23.708;2023-06-01T14:43:47;28.30;29.30
80254;DHT22;69563;37.974;23.708;2023-06-01T14:46:12;28.20;29.20
80254;DHT22;69563;37.974;23.708;2023-06-01T14:48:38;28.20;29.20
80254;DHT22;69563;37.974;23.708;2023-06-01T14:51:04;28.20;29.20
80254;DHT22;69563;37.974;23.708;2023-06-01T14:53:29;28.20;29.30
80254;DHT22;69563;37.974;23.708;2023-06-01T14:55:55;28.20;29.20
80254;DHT22;69563;37.974;23.708;2023-06-01T14:58:21;28.20;29.20
80254;DHT22;69563;37.974;23.708;2023-06-01T15:00:47;28.20;29.20
80254;DHT22;69563;37.974;23.708;2023-06-01T15:03:13;28.20;29.20
80254;DHT22;69563;37.974;23.708;2023-06-01T15:05:39;28.20;29.10
80254;DHT22;69563;37.974;23.708;2023-06-01T15:08:07;28.20;29.30
80254;DHT22;69563;37.974;23.708;2023-06-01T15:10:33;28.20;29.30
80254;DHT22;69563;37.974;23.708;2023-06-01T15:12:59;28.30;29.40
80254;DHT22;69563;37.974;23.708;2023-06-01T15:15:24;28.30;29.40
80254;DHT22;69563;37.974;23.708;2023-06-01T15:17:52;28.30;29.40
80254;DHT22;69563;37.974;23.708;2023-06-01T15:20:17;28.30;29.50
80254;DHT22;69563;37.974;23.708;2023-06-01T15:22:43;28.30;29.50
80254;DHT22;69563;37.974;23.708;2023-06-01T15:25:09;28.30;29.50
80254;DHT22;69563;37.974;23.708;2023-06-01T15:27:35;28.20;29.50
80254;DHT22;69563;37.974;23.708;2023-06-01T15:30:01;28.20;29.70
80254;DHT22;69563;37.974;23.708;2023-06-01T15:32:27;28.10;29.60
80254;DHT22;69563;37.974;23.708;2023-06-01T15:34:53;28.20;29.70
80254;DHT22;69563;37.974;23.708;2023-06-01T15:37:18;28.20;29.70
80254;DHT22;69563;37.974;23.708;2023-06-01T15:39:45;28.10;29.70
80254;DHT22;69563;37.974;23.708;2023-06-01T15:42:11;28.10;29.70
80254;DHT22;69563;37.974;23.708;2023-06-01T15:44:41;28.10;29.70
80254;DHT22;69563;37.974;23.708;2023-06-01T15:47:08;28.10;29.90
80254;DHT22;69563;37.974;23.708;2023-06-01T15:49:33;28.00;29.90
80254;DHT22;69563;37.974;23.708;2023-06-01T15:51:59;28.00;30.00
80254;DHT22;69563;37.974;23.708;2023-06-01T15:54:26;28.00;29.90